sensor_id;sensor_type;location;lat;lon;timestamp;P1;durP1;ratioP1;P2;durP2;ratioP2
35239;SDS011;21376;50.954;4.716;2024-03-23T00:56:16;29.20;;;7.75;;
35239;SDS011;21376;50.954;4.716;2024-03-23T00:58:42;14.75;;;5.40;;
35239;SDS011;21376;50.954;4.716;2024-03-23T01:01:09;25.45;;;5.65;;
35239;SDS011;21376;50.954;4.716;2024-03-23T01:03:35;19.98;;;4.65;;
35239;SDS011;21376;50.954;4.716;2024-03-23T01:06:03;23.27;;;5.45;;
35239;SDS011;21376;50.954;4.716;2024-03-23T01:08:29;22.48;;;5.10;;
35239;SDS011;21376;50.954;4.716;2024-03-23T01:10:59;21.48;;;5.05;;
35239;SDS011;21376;50.954;4.716;2024-03-23T01:13:27;23.85;;;4.78;;
35239;SDS011;21376;50.954;4.716;2024-03-23T01:15:53;23.42;;;5.40;;
35239;SDS011;21376;50.954;4.716;2024-03-23T01:18:23;23.85;;;4.93;;
35239;SDS011;21376;50.954;4.716;2024-03-23T01:20:51;34.28;;;5.88;;
35239;SDS011;21376;50.954;4.716;2024-03-23T01:23:17;26.67;;;5.70;;
35239;SDS011;21376;50.954;4.716;2024-03-23T01:25:51;26.95;;;5.93;;
35239;SDS011;21376;50.954;4.716;2024-03-23T01:28:20;27.45;;;5.80;;
35239;SDS011;21376;50.954;4.716;2024-03-23T01:30:48;26.20;;;5.93;;
35239;SDS011;21376;50.954;4.716;2024-03-23T01:33:13;25.80;;;5.90;;
35239;SDS011;21376;50.954;4.716;2024-03-23T01:35:39;24.52;;;6.13;;
35239;SDS011;21376;50.954;4.716;2024-03-23T01:38:05;22.73;;;7.20;;
35239;SDS011;21376;50.954;4.716;2024-03-23T01:40:36;27.98;;;6.78;;
35239;SDS011;21376;50.954;4.716;2024-03-23T01:43:06;29.33;;;6.22;;
35239;SDS011;21376;50.954;4.716;2024-03-23T01:45:33;22.08;;;6.28;;
35239;SDS011;21376;50.954;4.716;2024-03-23T01:48:00;28.13;;;6.53;;
35239;SDS011;21376;50.954;4.716;2024-03-23T01:50:28;24.98;;;7.20;;
35239;SDS011;21376;50.954;4.716;2024-03-23T01:52:58;25.40;;;7.50;;
35239;SDS011;21376;50.954;4.716;2024-03-23T01:55:32;30.35;;;6.68;;
35239;SDS011;21376;50.954;4.716;2024-03-23T01:57:58;34.13;;;9.10;;
35239;SDS011;21376;50.954;4.716;2024-03-23T02:00:24;30.52;;;7.22;;
35239;SDS011;21376;50.954;4.716;2024-03-23T02:02:52;31.40;;;8.73;;
35239;SDS011;21376;50.954;4.716;2024-03-23T02:05:17;28.17;;;8.10;;
35239;SDS011;21376;50.954;4.716;2024-03-23T02:07:45;27.98;;;8.30;;
35239;SDS011;21376;50.954;4.716;2024-03-23T02:10:11;26.90;;;8.70;;
35239;SDS011;21376;50.954;4.716;2024-03-23T02:12:40;37.08;;;8.85;;
35239;SDS011;21376;50.954;4.716;2024-03-23T02:15:07;31.40;;;8.43;;
35239;SDS011;21376;50.954;4.716;2024-03-23T02:17:34;33.63;;;9.63;;
35239;SDS011;21376;50.954;4.716;2024-03-23T02:20:00;34.03;;;9.20;;
35239;SDS011;21376;50.954;4.716;2024-03-23T02:22:37;31.30;;;9.85;;
35239;SDS011;21376;50.954;4.716;2024-03-23T02:25:06;36.33;;;10.02;;
35239;SDS011;21376;50.954;4.716;2024-03-23T02:27:34;42.95;;;9.90;;
35239;SDS011;21376;50.954;4.716;2024-03-23T02:30:02;34.75;;;9.57;;
35239;SDS011;21376;50.954;4.716;2024-03-23T02:32:29;34.47;;;9.35;;
35239;SDS011;21376;50.954;4.716;2024-03-23T02:34:55;34.10;;;10.32;;
35239;SDS011;21376;50.954;4.716;2024-03-23T02:37:20;30.77;;;9.90;;
35239;SDS011;21376;50.954;4.716;2024-03-23T02:39:46;27.92;;;9.45;;
35239;SDS011;21376;50.954;4.716;2024-03-23T02:42:12;31.17;;;9.93;;
35239;SDS011;21376;50.954;4.716;2024-03-23T02:44:38;29.25;;;9.20;;
35239;SDS011;21376;50.954;4.716;2024-03-23T02:47:03;33.38;;;10.38;;
35239;SDS011;21376;50.954;4.716;2024-03-23T02:49:29;28.85;;;10.25;;
35239;SDS011;21376;50.954;4.716;2024-03-23T02:51:58;37.40;;;9.65;;
35239;SDS011;21376;50.954;4.716;2024-03-23T02:54:24;35.65;;;9.18;;
35239;SDS011;21376;50.954;4.716;2024-03-23T02:56:51;34.45;;;10.68;;
35239;SDS011;21376;50.954;4.716;2024-03-23T02:59:18;22.55;;;10.43;;
35239;SDS011;21376;50.954;4.716;2024-03-23T03:01:46;33.78;;;11.77;;
35239;SDS011;21376;50.954;4.716;2024-03-23T03:04:12;31.42;;;10.73;;
35239;SDS011;21376;50.954;4.716;2024-03-23T03:06:38;34.95;;;12.32;;
35239;SDS011;21376;50.954;4.716;2024-03-23T03:09:09;38.08;;;12.50;;
35239;SDS011;21376;50.954;4.716;2024-03-23T03:11:34;32.58;;;14.27;;
35239;SDS011;21376;50.954;4.716;2024-03-23T03:14:03;47.85;;;13.38;;
35239;SDS011;21376;50.954;4.716;2024-03-23T03:19:01;44.25;;;15.57;;
35239;SDS011;21376;50.954;4.716;2024-03-23T03:21:28;41.63;;;14.73;;
35239;SDS011;21376;50.954;4.716;2024-03-23T03:23:54;54.63;;;15.38;;
35239;SDS011;21376;50.954;4.716;2024-03-23T03:26:28;44.20;;;14.43;;
35239;SDS011;21376;50.954;4.716;2024-03-23T03:28:55;48.93;;;15.77;;
35239;SDS011;21376;50.954;4.716;2024-03-23T03:31:21;40.25;;;14.98;;
35239;SDS011;21376;50.954;4.716;2024-03-23T03:33:50;43.85;;;14.38;;
35239;SDS011;21376;50.954;4.716;2024-03-23T03:36:17;41.55;;;15.20;;
35239;SDS011;21376;50.954;4.716;2024-03-23T03:38:43;44.03;;;15.25;;
35239;SDS011;21376;50.954;4.716;2024-03-23T03:41:09;45.25;;;14.85;;
35239;SDS011;21376;50.954;4.716;2024-03-23T03:43:35;45.70;;;15.23;;
35239;SDS011;21376;50.954;4.716;2024-03-23T03:46:01;42.50;;;15.40;;
35239;SDS011;21376;50.954;4.716;2024-03-23T03:48:28;44.83;;;14.88;;
35239;SDS011;21376;50.954;4.716;2024-03-23T03:50:54;38.47;;;15.45;;
35239;SDS011;21376;50.954;4.716;2024-03-23T03:53:23;45.10;;;14.18;;
35239;SDS011;21376;50.954;4.716;2024-03-23T03:55:49;38.05;;;14.30;;
35239;SDS011;21376;50.954;4.716;2024-03-23T03:58:17;42.90;;;14.50;;
35239;SDS011;21376;50.954;4.716;2024-03-23T04:00:44;44.95;;;16.08;;
35239;SDS011;21376;50.954;4.716;2024-03-23T04:03:12;47.88;;;16.23;;
35239;SDS011;21376;50.954;4.716;2024-03-23T04:05:40;43.30;;;14.68;;
35239;SDS011;21376;50.954;4.716;2024-03-23T04:08:08;44.70;;;15.38;;
35239;SDS011;21376;50.954;4.716;2024-03-23T04:10:36;48.53;;;16.60;;
35239;SDS011;21376;50.954;4.716;2024-03-23T04:13:02;45.03;;;15.05;;
35239;SDS011;21376;50.954;4.716;2024-03-23T04:15:30;38.45;;;14.00;;
35239;SDS011;21376;50.954;4.716;2024-03-23T04:17:57;47.85;;;14.68;;
35239;SDS011;21376;50.954;4.716;2024-03-23T04:20:25;42.60;;;15.27;;
35239;SDS011;21376;50.954;4.716;2024-03-23T04:22:51;48.08;;;15.85;;
35239;SDS011;21376;50.954;4.716;2024-03-23T04:25:17;45.20;;;14.65;;
35239;SDS011;21376;50.954;4.716;2024-03-23T04:27:45;44.78;;;15.15;;
35239;SDS011;21376;50.954;4.716;2024-03-23T04:30:11;42.72;;;15.27;;
35239;SDS011;21376;50.954;4.716;2024-03-23T04:32:38;41.92;;;15.48;;
35239;SDS011;21376;50.954;4.716;2024-03-23T04:35:05;44.58;;;15.27;;
35239;SDS011;21376;50.954;4.716;2024-03-23T04:37:35;47.50;;;15.57;;
35239;SDS011;21376;50.954;4.716;2024-03-23T04:42:35;53.40;;;15.80;;
35239;SDS011;21376;50.954;4.716;2024-03-23T04:45:02;43.30;;;15.75;;
35239;SDS011;21376;50.954;4.716;2024-03-23T04:47:28;53.35;;;16.27;;
35239;SDS011;21376;50.954;4.716;2024-03-23T04:49:55;52.60;;;15.88;;
35239;SDS011;21376;50.954;4.716;2024-03-23T04:52:21;41.83;;;15.50;;
35239;SDS011;21376;50.954;4.716;2024-03-23T04:54:52;47.67;;;15.43;;
35239;SDS011;21376;50.954;4.716;2024-03-23T04:57:20;53.33;;;15.68;;
35239;SDS011;21376;50.954;4.716;2024-03-23T04:59:48;46.08;;;16.48;;
35239;SDS011;21376;50.954;4.716;2024-03-23T05:02:14;42.47;;;15.15;;
35239;SDS011;21376;50.954;4.716;2024-03-23T05:04:43;41.13;;;15.77;;
35239;SDS011;21376;50.954;4.716;2024-03-23T05:07:09;40.88;;;14.27;;
35239;SDS011;21376;50.954;4.716;2024-03-23T05:09:35;39.67;;;14.23;;
35239;SDS011;21376;50.954;4.716;2024-03-23T05:12:01;43.15;;;14.77;;
35239;SDS011;21376;50.954;4.716;2024-03-23T05:14:33;44.10;;;14.13;;
35239;SDS011;21376;50.954;4.716;2024-03-23T05:17:07;37.83;;;12.88;;
35239;SDS011;21376;50.954;4.716;2024-03-23T05:19:34;34.80;;;13.25;;
35239;SDS011;21376;50.954;4.716;2024-03-23T05:22:01;37.28;;;12.75;;
35239;SDS011;21376;50.954;4.716;2024-03-23T05:24:27;37.80;;;12.18;;
35239;SDS011;21376;50.954;4.716;2024-03-23T05:26:59;36.30;;;12.65;;
35239;SDS011;21376;50.954;4.716;2024-03-23T05:29:27;33.10;;;11.38;;
35239;SDS011;21376;50.954;4.716;2024-03-23T05:31:55;31.63;;;11.13;;
35239;SDS011;21376;50.954;4.716;2024-03-23T05:34:22;36.58;;;11.60;;
35239;SDS011;21376;50.954;4.716;2024-03-23T05:39:18;35.45;;;9.32;;
35239;SDS011;21376;50.954;4.716;2024-03-23T05:41:49;34.05;;;10.75;;
35239;SDS011;21376;50.954;4.716;2024-03-23T05:44:20;33.17;;;9.95;;
35239;SDS011;21376;50.954;4.716;2024-03-23T05:49:20;28.98;;;9.57;;
35239;SDS011;21376;50.954;4.716;2024-03-23T05:51:48;28.83;;;10.10;;
35239;SDS011;21376;50.954;4.716;2024-03-23T05:54:17;29.52;;;9.10;;
35239;SDS011;21376;50.954;4.716;2024-03-23T05:56:43;30.27;;;8.90;;
35239;SDS011;21376;50.954;4.716;2024-03-23T05:59:09;31.65;;;9.80;;
35239;SDS011;21376;50.954;4.716;2024-03-23T06:01:35;26.80;;;8.75;;
35239;SDS011;21376;50.954;4.716;2024-03-23T06:04:02;33.15;;;9.80;;
35239;SDS011;21376;50.954;4.716;2024-03-23T06:06:30;35.30;;;8.30;;
35239;SDS011;21376;50.954;4.716;2024-03-23T06:08:58;25.67;;;7.93;;
35239;SDS011;21376;50.954;4.716;2024-03-23T06:11:27;27.08;;;8.63;;
35239;SDS011;21376;50.954;4.716;2024-03-23T06:16:25;23.45;;;7.93;;
35239;SDS011;21376;50.954;4.716;2024-03-23T06:18:55;33.50;;;8.20;;
35239;SDS011;21376;50.954;4.716;2024-03-23T06:21:27;30.02;;;8.15;;
35239;SDS011;21376;50.954;4.716;2024-03-23T06:29:19;28.30;;;9.82;;
35239;SDS011;21376;50.954;4.716;2024-03-23T06:32:02;32.65;;;9.55;;
35239;SDS011;21376;50.954;4.716;2024-03-23T06:34:31;27.83;;;9.73;;
35239;SDS011;21376;50.954;4.716;2024-03-23T06:37:12;23.88;;;8.95;;
35239;SDS011;21376;50.954;4.716;2024-03-23T06:39:45;29.42;;;8.98;;
35239;SDS011;21376;50.954;4.716;2024-03-23T06:50:26;26.02;;;6.70;;
35239;SDS011;21376;50.954;4.716;2024-03-23T06:52:55;23.10;;;7.10;;
35239;SDS011;21376;50.954;4.716;2024-03-23T06:55:24;22.13;;;6.50;;
35239;SDS011;21376;50.954;4.716;2024-03-23T07:00:23;18.63;;;5.35;;
35239;SDS011;21376;50.954;4.716;2024-03-23T07:02:53;28.15;;;5.90;;
35239;SDS011;21376;50.954;4.716;2024-03-23T07:05:22;18.52;;;5.28;;
35239;SDS011;21376;50.954;4.716;2024-03-23T07:07:50;23.17;;;5.07;;
35239;SDS011;21376;50.954;4.716;2024-03-23T07:16:02;19.50;;;4.82;;
35239;SDS011;21376;50.954;4.716;2024-03-23T07:18:31;21.23;;;4.82;;
35239;SDS011;21376;50.954;4.716;2024-03-23T07:23:31;19.63;;;4.72;;
35239;SDS011;21376;50.954;4.716;2024-03-23T07:26:04;22.20;;;5.07;;
35239;SDS011;21376;50.954;4.716;2024-03-23T07:31:08;18.90;;;4.60;;
35239;SDS011;21376;50.954;4.716;2024-03-23T07:33:41;17.60;;;5.32;;
35239;SDS011;21376;50.954;4.716;2024-03-23T07:36:09;14.63;;;4.13;;
35239;SDS011;21376;50.954;4.716;2024-03-23T07:38:40;19.02;;;3.72;;
35239;SDS011;21376;50.954;4.716;2024-03-23T07:44:45;21.15;;;3.80;;
35239;SDS011;21376;50.954;4.716;2024-03-23T07:47:15;16.38;;;3.55;;
35239;SDS011;21376;50.954;4.716;2024-03-23T07:49:43;14.60;;;4.05;;
35239;SDS011;21376;50.954;4.716;2024-03-23T07:52:15;15.85;;;4.22;;
35239;SDS011;21376;50.954;4.716;2024-03-23T07:54:49;10.82;;;2.85;;
35239;SDS011;21376;50.954;4.716;2024-03-23T07:57:17;9.40;;;2.55;;
35239;SDS011;21376;50.954;4.716;2024-03-23T07:59:46;9.77;;;2.47;;
35239;SDS011;21376;50.954;4.716;2024-03-23T08:02:15;12.50;;;3.20;;
35239;SDS011;21376;50.954;4.716;2024-03-23T08:04:46;10.77;;;2.65;;
35239;SDS011;21376;50.954;4.716;2024-03-23T08:07:16;11.88;;;3.13;;
35239;SDS011;21376;50.954;4.716;2024-03-23T08:09:43;10.18;;;2.75;;
35239;SDS011;21376;50.954;4.716;2024-03-23T08:12:10;10.38;;;3.00;;
35239;SDS011;21376;50.954;4.716;2024-03-23T08:17:05;11.23;;;3.13;;
35239;SDS011;21376;50.954;4.716;2024-03-23T08:19:36;14.48;;;3.47;;
35239;SDS011;21376;50.954;4.716;2024-03-23T08:22:05;11.38;;;3.28;;
35239;SDS011;21376;50.954;4.716;2024-03-23T08:24:31;17.05;;;3.53;;
35239;SDS011;21376;50.954;4.716;2024-03-23T08:26:57;11.80;;;2.72;;
35239;SDS011;21376;50.954;4.716;2024-03-23T08:29:23;15.93;;;2.97;;
35239;SDS011;21376;50.954;4.716;2024-03-23T08:31:49;11.52;;;3.00;;
35239;SDS011;21376;50.954;4.716;2024-03-23T08:34:15;18.98;;;3.35;;
35239;SDS011;21376;50.954;4.716;2024-03-23T08:36:41;11.50;;;3.08;;
35239;SDS011;21376;50.954;4.716;2024-03-23T08:39:08;15.75;;;3.00;;
35239;SDS011;21376;50.954;4.716;2024-03-23T08:41:37;10.35;;;2.65;;
35239;SDS011;21376;50.954;4.716;2024-03-23T08:44:03;14.82;;;3.65;;
35239;SDS011;21376;50.954;4.716;2024-03-23T08:46:32;14.43;;;3.58;;
35239;SDS011;21376;50.954;4.716;2024-03-23T08:48:59;18.17;;;3.10;;
35239;SDS011;21376;50.954;4.716;2024-03-23T08:51:32;11.93;;;3.72;;
35239;SDS011;21376;50.954;4.716;2024-03-23T08:56:27;14.00;;;3.15;;
35239;SDS011;21376;50.954;4.716;2024-03-23T09:01:25;25.20;;;3.97;;
35239;SDS011;21376;50.954;4.716;2024-03-23T09:03:51;16.55;;;3.95;;
35239;SDS011;21376;50.954;4.716;2024-03-23T09:06:17;17.63;;;4.07;;
35239;SDS011;21376;50.954;4.716;2024-03-23T09:08:46;11.35;;;3.40;;
35239;SDS011;21376;50.954;4.716;2024-03-23T09:11:15;14.07;;;3.65;;
35239;SDS011;21376;50.954;4.716;2024-03-23T09:13:44;16.30;;;3.90;;
35239;SDS011;21376;50.954;4.716;2024-03-23T09:16:13;14.10;;;3.30;;
35239;SDS011;21376;50.954;4.716;2024-03-23T09:21:16;12.57;;;3.53;;
35239;SDS011;21376;50.954;4.716;2024-03-23T09:23:52;12.90;;;2.92;;
35239;SDS011;21376;50.954;4.716;2024-03-23T09:26:21;13.95;;;3.22;;
35239;SDS011;21376;50.954;4.716;2024-03-23T09:31:19;13.23;;;2.90;;
35239;SDS011;21376;50.954;4.716;2024-03-23T09:33:45;12.85;;;2.90;;
35239;SDS011;21376;50.954;4.716;2024-03-23T09:36:14;15.48;;;3.40;;
35239;SDS011;21376;50.954;4.716;2024-03-23T09:38:46;10.35;;;2.92;;
35239;SDS011;21376;50.954;4.716;2024-03-23T09:41:14;13.20;;;2.58;;
35239;SDS011;21376;50.954;4.716;2024-03-23T09:49:09;14.27;;;2.83;;
35239;SDS011;21376;50.954;4.716;2024-03-23T09:51:38;13.15;;;2.70;;
35239;SDS011;21376;50.954;4.716;2024-03-23T09:54:20;13.77;;;3.53;;
35239;SDS011;21376;50.954;4.716;2024-03-23T09:56:55;16.05;;;2.78;;
35239;SDS011;21376;50.954;4.716;2024-03-23T10:01:53;16.10;;;3.22;;
35239;SDS011;21376;50.954;4.716;2024-03-23T10:07:11;10.75;;;2.00;;
35239;SDS011;21376;50.954;4.716;2024-03-23T10:09:48;7.80;;;1.80;;
35239;SDS011;21376;50.954;4.716;2024-03-23T10:12:18;8.82;;;1.98;;
35239;SDS011;21376;50.954;4.716;2024-03-23T10:14:48;5.90;;;1.58;;
35239;SDS011;21376;50.954;4.716;2024-03-23T10:17:17;7.35;;;1.75;;
35239;SDS011;21376;50.954;4.716;2024-03-23T10:19:57;9.02;;;2.33;;
35239;SDS011;21376;50.954;4.716;2024-03-23T10:22:57;12.77;;;3.03;;
35239;SDS011;21376;50.954;4.716;2024-03-23T10:28:18;15.00;;;3.33;;
35239;SDS011;21376;50.954;4.716;2024-03-23T10:33:32;12.40;;;3.22;;
35239;SDS011;21376;50.954;4.716;2024-03-23T10:36:25;6.95;;;2.72;;
35239;SDS011;21376;50.954;4.716;2024-03-23T10:38:53;7.25;;;3.00;;
35239;SDS011;21376;50.954;4.716;2024-03-23T10:41:22;9.52;;;2.88;;
35239;SDS011;21376;50.954;4.716;2024-03-23T10:43:51;9.75;;;2.95;;
35239;SDS011;21376;50.954;4.716;2024-03-23T10:46:41;9.25;;;3.20;;
35239;SDS011;21376;50.954;4.716;2024-03-23T10:49:51;10.55;;;3.25;;
35239;SDS011;21376;50.954;4.716;2024-03-23T10:52:34;10.45;;;3.38;;
35239;SDS011;21376;50.954;4.716;2024-03-23T10:57:41;7.68;;;3.22;;
35239;SDS011;21376;50.954;4.716;2024-03-23T11:00:19;8.82;;;3.30;;
35239;SDS011;21376;50.954;4.716;2024-03-23T11:02:49;9.73;;;3.03;;
35239;SDS011;21376;50.954;4.716;2024-03-23T11:07:57;8.85;;;3.22;;
35239;SDS011;21376;50.954;4.716;2024-03-23T11:25:27;8.55;;;3.75;;
35239;SDS011;21376;50.954;4.716;2024-03-23T11:30:34;10.48;;;3.78;;
35239;SDS011;21376;50.954;4.716;2024-03-23T11:33:02;12.38;;;4.60;;
35239;SDS011;21376;50.954;4.716;2024-03-23T11:35:31;8.73;;;4.93;;
35239;SDS011;21376;50.954;4.716;2024-03-23T11:38:13;7.47;;;3.67;;
35239;SDS011;21376;50.954;4.716;2024-03-23T11:40:46;8.15;;;3.53;;
35239;SDS011;21376;50.954;4.716;2024-03-23T11:48:36;5.57;;;3.53;;
35239;SDS011;21376;50.954;4.716;2024-03-23T11:51:02;11.02;;;6.20;;
35239;SDS011;21376;50.954;4.716;2024-03-23T11:53:28;16.10;;;5.63;;
35239;SDS011;21376;50.954;4.716;2024-03-23T11:55:56;7.82;;;3.75;;
35239;SDS011;21376;50.954;4.716;2024-03-23T11:58:24;10.98;;;2.83;;
35239;SDS011;21376;50.954;4.716;2024-03-23T12:06:21;7.07;;;2.55;;
35239;SDS011;21376;50.954;4.716;2024-03-23T12:08:54;7.20;;;2.28;;
35239;SDS011;21376;50.954;4.716;2024-03-23T12:11:35;11.00;;;2.65;;
35239;SDS011;21376;50.954;4.716;2024-03-23T12:14:02;6.63;;;1.85;;
35239;SDS011;21376;50.954;4.716;2024-03-23T12:16:36;10.27;;;2.05;;
35239;SDS011;21376;50.954;4.716;2024-03-23T12:19:05;8.07;;;1.95;;
35239;SDS011;21376;50.954;4.716;2024-03-23T12:21:35;6.13;;;2.08;;
35239;SDS011;21376;50.954;4.716;2024-03-23T12:24:04;4.97;;;1.50;;
35239;SDS011;21376;50.954;4.716;2024-03-23T12:26:33;7.22;;;2.33;;
35239;SDS011;21376;50.954;4.716;2024-03-23T12:31:31;13.25;;;2.50;;
35239;SDS011;21376;50.954;4.716;2024-03-23T12:33:59;7.43;;;2.42;;
35239;SDS011;21376;50.954;4.716;2024-03-23T12:36:28;12.32;;;2.80;;
35239;SDS011;21376;50.954;4.716;2024-03-23T12:44:47;8.07;;;1.73;;
35239;SDS011;21376;50.954;4.716;2024-03-23T12:47:19;9.30;;;1.90;;
35239;SDS011;21376;50.954;4.716;2024-03-23T12:49:47;7.97;;;1.95;;
35239;SDS011;21376;50.954;4.716;2024-03-23T12:52:14;8.00;;;1.52;;
35239;SDS011;21376;50.954;4.716;2024-03-23T12:54:41;5.95;;;1.38;;
35239;SDS011;21376;50.954;4.716;2024-03-23T13:03:00;8.27;;;1.98;;
35239;SDS011;21376;50.954;4.716;2024-03-23T13:07:55;7.90;;;2.00;;
35239;SDS011;21376;50.954;4.716;2024-03-23T13:12:51;8.15;;;1.65;;
35239;SDS011;21376;50.954;4.716;2024-03-23T13:15:21;10.85;;;1.80;;
35239;SDS011;21376;50.954;4.716;2024-03-23T13:17:49;10.40;;;2.10;;
35239;SDS011;21376;50.954;4.716;2024-03-23T13:23:18;9.00;;;2.03;;
35239;SDS011;21376;50.954;4.716;2024-03-23T13:25:56;9.60;;;2.42;;
35239;SDS011;21376;50.954;4.716;2024-03-23T13:34:07;7.13;;;1.60;;
35239;SDS011;21376;50.954;4.716;2024-03-23T13:36:36;8.82;;;2.08;;
35239;SDS011;21376;50.954;4.716;2024-03-23T13:44:38;11.80;;;2.67;;
35239;SDS011;21376;50.954;4.716;2024-03-23T13:47:06;9.85;;;2.17;;
35239;SDS011;21376;50.954;4.716;2024-03-23T13:49:36;12.23;;;2.13;;
35239;SDS011;21376;50.954;4.716;2024-03-23T14:53:29;7.25;;;1.90;;
35239;SDS011;21376;50.954;4.716;2024-03-23T14:55:55;9.20;;;2.67;;
35239;SDS011;21376;50.954;4.716;2024-03-23T15:00:50;8.90;;;2.08;;
35239;SDS011;21376;50.954;4.716;2024-03-23T15:03:22;7.60;;;1.95;;
35239;SDS011;21376;50.954;4.716;2024-03-23T15:05:54;9.75;;;3.00;;
35239;SDS011;21376;50.954;4.716;2024-03-23T15:08:21;8.52;;;2.53;;
35239;SDS011;21376;50.954;4.716;2024-03-23T15:13:19;11.23;;;2.38;;
35239;SDS011;21376;50.954;4.716;2024-03-23T15:15:51;7.78;;;2.17;;
35239;SDS011;21376;50.954;4.716;2024-03-23T15:18:19;10.15;;;2.40;;
35239;SDS011;21376;50.954;4.716;2024-03-23T15:21:04;9.02;;;2.53;;
35239;SDS011;21376;50.954;4.716;2024-03-23T15:26:04;15.85;;;5.45;;
35239;SDS011;21376;50.954;4.716;2024-03-23T15:28:33;14.40;;;4.15;;
35239;SDS011;21376;50.954;4.716;2024-03-23T15:34:25;13.70;;;4.15;;
35239;SDS011;21376;50.954;4.716;2024-03-23T15:36:52;8.85;;;3.20;;
35239;SDS011;21376;50.954;4.716;2024-03-23T15:41:51;8.65;;;2.92;;
35239;SDS011;21376;50.954;4.716;2024-03-23T15:46:51;8.10;;;2.65;;
35239;SDS011;21376;50.954;4.716;2024-03-23T15:49:17;8.68;;;2.10;;
35239;SDS011;21376;50.954;4.716;2024-03-23T15:51:43;10.75;;;2.28;;
35239;SDS011;21376;50.954;4.716;2024-03-23T15:54:09;8.27;;;2.22;;
35239;SDS011;21376;50.954;4.716;2024-03-23T15:56:35;21.23;;;5.30;;
35239;SDS011;21376;50.954;4.716;2024-03-23T15:59:06;14.50;;;4.55;;
35239;SDS011;21376;50.954;4.716;2024-03-23T16:01:41;14.18;;;3.10;;
35239;SDS011;21376;50.954;4.716;2024-03-23T16:06:41;12.13;;;2.38;;
35239;SDS011;21376;50.954;4.716;2024-03-23T16:09:12;8.23;;;2.72;;
35239;SDS011;21376;50.954;4.716;2024-03-23T16:14:11;8.55;;;2.45;;
35239;SDS011;21376;50.954;4.716;2024-03-23T16:16:44;8.18;;;2.78;;
35239;SDS011;21376;50.954;4.716;2024-03-23T16:19:12;8.15;;;2.95;;
35239;SDS011;21376;50.954;4.716;2024-03-23T16:24:10;5.80;;;3.15;;
35239;SDS011;21376;50.954;4.716;2024-03-23T16:26:39;7.65;;;2.90;;
35239;SDS011;21376;50.954;4.716;2024-03-23T16:31:39;10.93;;;3.28;;
35239;SDS011;21376;50.954;4.716;2024-03-23T16:34:11;7.38;;;3.17;;
35239;SDS011;21376;50.954;4.716;2024-03-23T16:36:44;9.07;;;2.83;;
35239;SDS011;21376;50.954;4.716;2024-03-23T16:39:13;6.07;;;2.80;;
35239;SDS011;21376;50.954;4.716;2024-03-23T16:41:42;16.73;;;3.75;;
35239;SDS011;21376;50.954;4.716;2024-03-23T16:44:09;6.20;;;3.83;;
35239;SDS011;21376;50.954;4.716;2024-03-23T16:46:36;7.63;;;3.80;;
35239;SDS011;21376;50.954;4.716;2024-03-23T16:49:12;10.77;;;3.83;;
35239;SDS011;21376;50.954;4.716;2024-03-23T16:51:41;10.82;;;3.63;;
35239;SDS011;21376;50.954;4.716;2024-03-23T17:01:36;9.82;;;3.28;;
35239;SDS011;21376;50.954;4.716;2024-03-23T17:09:56;8.77;;;3.20;;
35239;SDS011;21376;50.954;4.716;2024-03-23T17:12:22;10.45;;;5.30;;
35239;SDS011;21376;50.954;4.716;2024-03-23T17:14:50;12.93;;;5.57;;
35239;SDS011;21376;50.954;4.716;2024-03-23T17:20:33;6.82;;;2.55;;
35239;SDS011;21376;50.954;4.716;2024-03-23T17:23:05;10.43;;;4.05;;
35239;SDS011;21376;50.954;4.716;2024-03-23T17:25:34;24.58;;;6.85;;
35239;SDS011;21376;50.954;4.716;2024-03-23T17:33:42;10.90;;;2.45;;
35239;SDS011;21376;50.954;4.716;2024-03-23T17:36:12;8.90;;;2.65;;
35239;SDS011;21376;50.954;4.716;2024-03-23T17:38:38;7.72;;;2.47;;
35239;SDS011;21376;50.954;4.716;2024-03-23T17:41:05;6.45;;;2.40;;
35239;SDS011;21376;50.954;4.716;2024-03-23T17:43:30;10.02;;;2.80;;
35239;SDS011;21376;50.954;4.716;2024-03-23T17:45:57;9.90;;;3.45;;
35239;SDS011;21376;50.954;4.716;2024-03-23T17:48:23;8.82;;;2.45;;
35239;SDS011;21376;50.954;4.716;2024-03-23T17:50:59;11.30;;;2.83;;
35239;SDS011;21376;50.954;4.716;2024-03-23T17:53:27;8.32;;;3.47;;
35239;SDS011;21376;50.954;4.716;2024-03-23T17:55:53;7.97;;;2.53;;
35239;SDS011;21376;50.954;4.716;2024-03-23T17:58:20;8.05;;;3.17;;
35239;SDS011;21376;50.954;4.716;2024-03-23T18:00:46;9.05;;;2.53;;
35239;SDS011;21376;50.954;4.716;2024-03-23T18:03:12;9.02;;;2.42;;
35239;SDS011;21376;50.954;4.716;2024-03-23T18:05:38;9.93;;;2.35;;
35239;SDS011;21376;50.954;4.716;2024-03-23T18:08:03;6.43;;;1.98;;
35239;SDS011;21376;50.954;4.716;2024-03-23T18:10:30;5.63;;;1.20;;
35239;SDS011;21376;50.954;4.716;2024-03-23T18:12:56;3.50;;;1.40;;
35239;SDS011;21376;50.954;4.716;2024-03-23T18:18:37;4.07;;;1.73;;
35239;SDS011;21376;50.954;4.716;2024-03-23T18:26:27;5.85;;;1.73;;
35239;SDS011;21376;50.954;4.716;2024-03-23T18:40:21;7.05;;;2.50;;
35239;SDS011;21376;50.954;4.716;2024-03-23T18:42:50;4.68;;;1.60;;
35239;SDS011;21376;50.954;4.716;2024-03-23T18:45:17;6.88;;;1.70;;
35239;SDS011;21376;50.954;4.716;2024-03-23T18:47:46;4.75;;;1.60;;
35239;SDS011;21376;50.954;4.716;2024-03-23T18:50:15;4.40;;;1.80;;
35239;SDS011;21376;50.954;4.716;2024-03-23T18:52:44;4.00;;;1.80;;
35239;SDS011;21376;50.954;4.716;2024-03-23T18:55:12;5.18;;;2.03;;
35239;SDS011;21376;50.954;4.716;2024-03-23T18:57:40;6.95;;;2.40;;
35239;SDS011;21376;50.954;4.716;2024-03-23T19:00:13;4.78;;;3.00;;
35239;SDS011;21376;50.954;4.716;2024-03-23T19:02:43;6.72;;;2.90;;
35239;SDS011;21376;50.954;4.716;2024-03-23T19:07:41;10.07;;;4.00;;
35239;SDS011;21376;50.954;4.716;2024-03-23T19:10:07;8.70;;;2.88;;
35239;SDS011;21376;50.954;4.716;2024-03-23T19:12:33;7.15;;;2.80;;
35239;SDS011;21376;50.954;4.716;2024-03-23T19:17:35;7.00;;;2.08;;
35239;SDS011;21376;50.954;4.716;2024-03-23T19:20:01;5.13;;;2.45;;
35239;SDS011;21376;50.954;4.716;2024-03-23T19:22:33;6.35;;;2.20;;
35239;SDS011;21376;50.954;4.716;2024-03-23T19:25:02;8.15;;;2.70;;
35239;SDS011;21376;50.954;4.716;2024-03-23T19:27:31;11.43;;;2.90;;
35239;SDS011;21376;50.954;4.716;2024-03-23T19:30:05;9.77;;;2.78;;
35239;SDS011;21376;50.954;4.716;2024-03-23T19:32:34;6.68;;;3.33;;
35239;SDS011;21376;50.954;4.716;2024-03-23T19:35:03;10.52;;;3.95;;
35239;SDS011;21376;50.954;4.716;2024-03-23T19:37:31;14.48;;;4.47;;
35239;SDS011;21376;50.954;4.716;2024-03-23T19:39:58;9.90;;;4.82;;
35239;SDS011;21376;50.954;4.716;2024-03-23T19:42:27;10.30;;;3.33;;
35239;SDS011;21376;50.954;4.716;2024-03-23T19:44:54;10.65;;;3.42;;
35239;SDS011;21376;50.954;4.716;2024-03-23T19:49:51;9.57;;;3.50;;
35239;SDS011;21376;50.954;4.716;2024-03-23T19:52:18;8.45;;;2.83;;
35239;SDS011;21376;50.954;4.716;2024-03-23T20:02:32;11.13;;;3.40;;
35239;SDS011;21376;50.954;4.716;2024-03-23T20:05:01;9.55;;;3.33;;
35239;SDS011;21376;50.954;4.716;2024-03-23T20:07:30;7.88;;;3.50;;
35239;SDS011;21376;50.954;4.716;2024-03-23T20:10:02;7.57;;;4.15;;
35239;SDS011;21376;50.954;4.716;2024-03-23T20:12:40;13.18;;;4.82;;
35239;SDS011;21376;50.954;4.716;2024-03-23T20:17:54;8.90;;;4.65;;
35239;SDS011;21376;50.954;4.716;2024-03-23T20:20:35;12.95;;;5.18;;
35239;SDS011;21376;50.954;4.716;2024-03-23T20:25:56;10.82;;;5.10;;
35239;SDS011;21376;50.954;4.716;2024-03-23T20:28:23;12.57;;;5.65;;
35239;SDS011;21376;50.954;4.716;2024-03-23T20:31:00;12.00;;;4.30;;